Flight Track Log - Related Links

Times and Time Zones

All times are in EDT time to prevent confusion due to time zone crossing. See the CTL18 flight status page for this flight to view local times or setup timezone preferences in your user account.

Time Position Orientation Groundspeed Altitude Reporting Facility
EDT Latitude Longitude Course Direction KTS MPH feet Rate Location/Type
Tue 08:25:00 PM 43.3619 -84.0057 160° South  Level Estimated
Tue 08:26:00 PM 43.3366 -83.9838 148° Southeast  Level FlightAware Approximate
Tue 08:27:00 PM 43.3080 -83.9718 160° South  Level Estimated
Tue 08:28:00 PM 43.2807 -83.9553 156° South  Level FlightAware Approximate
Tue 08:29:00 PM 43.2533 -83.9388 156° South  Level FlightAware Approximate
Tue 08:30:00 PM 43.2247 -83.9271 163° South  Level Estimated
Tue 08:31:00 PM 43.1965 -83.9134 161° South  Level FlightAware Approximate
Tue 08:31:58 PM 42.9964 -83.8194 160° South 178 205 5,100  Level Cleveland Center
Tue 08:32:00 PM 43.1683 -83.8997 161° South  Level FlightAware Approximate
Tue 08:32:46 PM 42.9592 -83.8003 159° South 179 206 5,100  Level Cleveland Center
Tue 08:33:00 PM 43.1401 -83.8861 161° South  Level FlightAware Approximate
Tue 08:33:41 PM 42.9183 -83.7756 156° South 181 208 5,100  Level Cleveland Center
Tue 08:34:00 PM 43.1115 -83.8746 160° South  Level Estimated
Tue 08:34:48 PM 42.8650 -83.7472 159° South 184 212 5,100  Level Cleveland Center
Tue 08:35:00 PM 43.0835 -83.8603 160° South  Level FlightAware Approximate
Tue 08:35:49 PM 42.8133 -83.7278 165° South 182 209 5,000  Level Cleveland Center
Tue 08:36:00 PM 43.0555 -83.8461 160° South  Level FlightAware Approximate
Tue 08:36:56 PM 42.7575 -83.7053 164° South 184 212 5,100  Level Cleveland Center
Tue 08:37:00 PM 43.0275 -83.8318 160° South  Level FlightAware Approximate
Tue 08:37:57 PM 42.7125 -83.6747 153° Southeast 185 213 5,000  Level Cleveland Center
Tue 08:38:52 PM 42.6694 -83.6472 155° Southeast 182 209 5,100 -49 Climbing Cleveland Center
Tue 08:39:59 PM 42.6181 -83.6192 158° South 186 214 4,900 -469 Descending Cleveland Center
Tue 08:41:00 PM 42.5689 -83.5942 159° South 201 231 4,100 -738 Descending Cleveland Center
Tue 08:42:01 PM 42.5092 -83.5661 161° South 203 234 3,400 -492 Descending Cleveland Center
Tue 08:43:02 PM 42.4575 -83.5494 167° South 185 213 3,100 -207 Descending Cleveland Center
Tue 08:43:57 PM 42.4117 -83.5417 173° South 174 200 3,000 -155 Descending Cleveland Center
Tue 08:44:58 PM 42.3642 -83.5256 166° South 180 207 2,800 -492 Descending Cleveland Center
Tue 08:45:59 PM 42.3122 -83.5203 176° South 182 209 2,000 -621 Descending Cleveland Center
Tue 08:46:54 PM 42.2728 -83.5156 175° South 150 173 1,600 -436 Descending Cleveland Center
Tue 08:48:00 PM 42.2386 -83.5193 160° South  Level FlightAware Approximate
Tue 08:55:00 PM 42.2333 -83.5167 160° South  Level FlightAware Approximate
Tue 08:56:00 PM 42.2393 -83.5310 160° South  Level Estimated
Tue 08:57:00 PM 42.2393 -83.5310 160° South  Level Estimated

Login

Don't have an account? Register now (free) for customized features, flight alerts, and more!